OMAA/AUH METAR and TAF weather

Enter ICAO airport designator
Station Type Date Time Source
OMAA METAR 2019/04/25 16:00 UTC NOAA

OMAA 251600Z 30009KT 270V330 CAVOK 23/14 Q1014 NOSIG


Station Type Date Time Source
OMAA Decoded METAR 2019/04/25 16:00 UTC NOAA

Abu Dhabi International Airport, United Arab Emirates (OMAA) 24-26N 054-39E 27M
Apr 25, 2019 - 12:00 PM EDT / 2019.04.25 1600 UTC
Wind: from the WNW (300 degrees) at 10 MPH (9 KT) (direction variable):0
Visibility: greater than 7 mile(s):0
Temperature: 73 F (23 C)
Dew Point: 57 F (14 C)
Relative Humidity: 56%
Pressure (altimeter): 29.94 in. Hg (1014 hPa)
ob: OMAA 251600Z 30009KT 270V330 CAVOK 23/14 Q1014 NOSIG
cycle: 16

Station Type Date Time Source
OMAA TAF 2019/04/25 12:03 UTC NOAA

TAF TAF OMAA 251100Z 2512/2618 33017KT 8000 NSC
BECMG 2520/2522 26007KT
BECMG 2604/2606 32016KT

Example: see airport list